createdAt,value
2022-08-26T00:00:17.595Z,6.80
2022-08-26T00:03:20.024Z,6.97
2022-08-26T00:06:22.103Z,6.33
2022-08-26T00:09:25.094Z,7.05
2022-08-26T00:12:37.466Z,6.25
2022-08-26T00:15:40.220Z,7.50
2022-08-26T00:18:42.252Z,6.53
2022-08-26T00:21:44.481Z,6.63
2022-08-26T00:24:48.092Z,6.10
2022-08-26T00:27:50.664Z,6.60
2022-08-26T00:30:54.299Z,6.30
2022-08-26T00:33:56.806Z,7.20
2022-08-26T00:36:58.814Z,6.80
2022-08-26T00:40:01.634Z,6.90
2022-08-26T00:43:07.611Z,7.38
2022-08-26T00:46:16.672Z,7.97
2022-08-26T00:49:22.653Z,8.27
2022-08-26T00:52:25.094Z,6.90
2022-08-26T00:55:34.630Z,6.68
2022-08-26T00:58:43.101Z,6.85
2022-08-26T01:01:45.910Z,7.47
2022-08-26T01:04:56.002Z,7.03
2022-08-26T01:07:58.485Z,7.43
2022-08-26T01:11:01.386Z,7.10
2022-08-26T01:14:04.751Z,6.88
2022-08-26T01:17:08.573Z,6.80
2022-08-26T01:20:11.564Z,6.43
2022-08-26T01:23:15.315Z,7.20
2022-08-26T01:26:22.819Z,7.20
2022-08-26T01:29:26.101Z,6.75
2022-08-26T01:32:28.553Z,6.70
2022-08-26T01:35:30.835Z,7.50
2022-08-26T01:38:33.038Z,7.83
2022-08-26T01:41:36.533Z,6.47
2022-08-26T01:44:41.812Z,7.40
2022-08-26T01:47:44.672Z,7.00
2022-08-26T01:50:47.479Z,7.15
2022-08-26T01:53:49.716Z,6.20
2022-08-26T01:56:52.711Z,6.32
2022-08-26T01:59:56.645Z,7.43
2022-08-26T02:03:17.144Z,7.00
2022-08-26T02:06:19.928Z,6.63
2022-08-26T02:09:22.414Z,7.43
2022-08-26T02:12:25.888Z,6.75
2022-08-26T02:15:28.262Z,7.20
2022-08-26T02:18:32.903Z,7.18
2022-08-26T02:21:35.181Z,6.90
2022-08-26T02:24:51.022Z,6.50
2022-08-26T02:27:53.260Z,7.45
2022-08-26T02:30:55.735Z,6.95
2022-08-26T02:34:07.392Z,6.80
2022-08-26T02:37:12.965Z,7.30
2022-08-26T02:40:15.344Z,6.07
2022-08-26T02:43:17.567Z,6.75
2022-08-26T02:46:21.577Z,6.90
2022-08-26T02:49:31.912Z,6.68
2022-08-26T02:52:33.897Z,7.25
2022-08-26T02:55:36.717Z,7.43
2022-08-26T02:58:38.797Z,7.00
2022-08-26T03:01:40.952Z,7.38
2022-08-26T03:04:57.754Z,6.70
2022-08-26T03:08:04.329Z,7.38
2022-08-26T03:11:06.369Z,6.37
2022-08-26T03:14:08.548Z,7.20
2022-08-26T03:17:10.531Z,7.65
2022-08-26T03:20:13.628Z,6.60
2022-08-26T03:23:18.589Z,8.10
2022-08-26T03:26:20.821Z,6.57
2022-08-26T03:29:41.156Z,6.90
2022-08-26T03:32:43.238Z,6.22
2022-08-26T03:35:47.162Z,6.70
2022-08-26T03:38:49.156Z,6.40
2022-08-26T03:41:51.811Z,6.67
2022-08-26T03:44:53.832Z,6.68
2022-08-26T03:47:56.149Z,6.38
2022-08-26T03:51:00.897Z,6.15
2022-08-26T03:54:06.156Z,6.15
2022-08-26T03:57:10.417Z,6.70
2022-08-26T04:00:18.569Z,5.85
2022-08-26T04:03:40.706Z,5.70
2022-08-26T04:06:43.379Z,6.45
2022-08-26T04:09:46.821Z,5.80
2022-08-26T04:12:48.867Z,6.33
2022-08-26T04:15:50.981Z,5.63
2022-08-26T04:18:53.006Z,6.75
2022-08-26T04:21:55.000Z,6.70
2022-08-26T04:24:57.021Z,6.22
2022-08-26T04:27:59.041Z,5.73
2022-08-26T04:31:01.181Z,6.00
2022-08-26T04:34:04.609Z,5.85
2022-08-26T04:37:08.049Z,6.03
2022-08-26T04:40:10.631Z,6.47
2022-08-26T04:43:12.857Z,5.93
2022-08-26T04:46:17.583Z,6.22
2022-08-26T04:49:21.140Z,6.07
2022-08-26T04:52:23.730Z,5.82
2022-08-26T04:55:38.443Z,5.80
2022-08-26T04:58:41.982Z,5.70
2022-08-26T05:01:45.305Z,5.70
2022-08-26T05:04:47.359Z,6.65
2022-08-26T05:07:53.926Z,5.85
2022-08-26T05:10:56.601Z,7.10
2022-08-26T05:14:02.121Z,7.47
2022-08-26T05:17:04.698Z,7.20
2022-08-26T05:20:07.061Z,6.82
2022-08-26T05:23:09.365Z,5.72
2022-08-26T05:26:11.619Z,6.07
2022-08-26T05:29:14.084Z,5.93
2022-08-26T05:32:16.453Z,5.50
2022-08-26T05:35:18.553Z,6.40
2022-08-26T05:38:21.654Z,5.70
2022-08-26T05:41:36.228Z,5.70
2022-08-26T05:44:55.720Z,7.30
2022-08-26T05:47:58.311Z,5.63
2022-08-26T05:51:02.727Z,5.57
2022-08-26T05:54:06.909Z,5.30
2022-08-26T05:57:08.892Z,5.93
2022-08-26T06:00:12.789Z,4.50
2022-08-26T06:03:14.931Z,4.85
2022-08-26T06:06:20.159Z,5.80
2022-08-26T06:09:30.216Z,5.15
2022-08-26T06:12:32.840Z,5.28
2022-08-26T06:15:35.608Z,4.87
2022-08-26T06:18:42.082Z,7.72
2022-08-26T06:21:45.629Z,5.57
2022-08-26T06:25:06.100Z,4.90
2022-08-26T06:28:10.223Z,5.22
2022-08-26T06:31:16.067Z,5.43
2022-08-26T06:34:18.261Z,4.50
2022-08-26T06:37:20.381Z,4.80
2022-08-26T06:40:23.739Z,4.97
2022-08-26T06:43:26.835Z,4.72
2022-08-26T06:46:29.873Z,4.83
2022-08-26T06:49:32.027Z,4.93
2022-08-26T06:52:34.217Z,4.40
2022-08-26T06:55:43.954Z,4.18
2022-08-26T06:58:46.797Z,5.15
2022-08-26T07:01:49.626Z,5.67
2022-08-26T07:04:52.187Z,4.93
2022-08-26T07:07:58.852Z,4.90
2022-08-26T07:11:04.251Z,5.10
2022-08-26T07:14:07.521Z,4.60
2022-08-26T07:17:13.726Z,4.20
2022-08-26T07:20:18.129Z,4.57
2022-08-26T07:23:21.516Z,5.00
2022-08-26T07:26:26.521Z,5.15
2022-08-26T07:29:34.244Z,4.95
2022-08-26T07:32:37.633Z,5.17
2022-08-26T07:35:39.922Z,5.53
2022-08-26T07:38:44.365Z,5.15
2022-08-26T07:41:47.397Z,4.97
2022-08-26T07:44:50.200Z,5.07
2022-08-26T07:47:52.234Z,4.67
2022-08-26T07:50:54.286Z,4.70
2022-08-26T07:53:57.431Z,5.35
2022-08-26T07:56:59.694Z,4.80
2022-08-26T08:00:02.562Z,5.18
2022-08-26T08:03:15.017Z,4.80
2022-08-26T08:06:21.111Z,4.43
2022-08-26T08:09:24.707Z,5.13
2022-08-26T08:12:26.722Z,4.95
2022-08-26T08:15:29.962Z,4.63
2022-08-26T08:18:32.034Z,4.33
2022-08-26T08:21:37.263Z,4.18
2022-08-26T08:24:39.357Z,4.70
2022-08-26T08:27:42.516Z,4.70
2022-08-26T08:30:44.995Z,4.78
2022-08-26T08:33:47.288Z,4.23
2022-08-26T08:36:50.506Z,5.10
2022-08-26T08:39:55.747Z,5.00
2022-08-26T08:43:11.328Z,5.28
2022-08-26T08:46:15.180Z,4.68
2022-08-26T08:49:17.794Z,4.60
2022-08-26T08:52:29.037Z,4.25
2022-08-26T08:55:41.265Z,4.82
2022-08-26T08:59:02.492Z,4.38
2022-08-26T09:02:27.357Z,4.57
2022-08-26T09:05:40.181Z,4.33
2022-08-26T09:08:43.966Z,3.83
2022-08-26T09:11:46.239Z,4.38
2022-08-26T09:14:49.657Z,4.40
2022-08-26T09:18:19.630Z,4.03
2022-08-26T09:21:25.413Z,3.83
2022-08-26T09:24:29.454Z,4.82
2022-08-26T09:27:38.040Z,4.43
2022-08-26T09:30:40.468Z,3.72
2022-08-26T09:33:43.860Z,4.30
2022-08-26T09:36:53.710Z,3.73
2022-08-26T09:40:11.201Z,3.90
2022-08-26T09:43:22.828Z,4.50
2022-08-26T09:46:27.770Z,3.67
2022-08-26T09:49:35.610Z,5.00
2022-08-26T09:52:38.296Z,3.83
2022-08-26T09:55:44.130Z,3.83
2022-08-26T09:58:47.364Z,3.63
2022-08-26T10:01:49.746Z,3.35
2022-08-26T10:04:56.424Z,3.80
2022-08-26T10:07:59.643Z,3.90
2022-08-26T10:11:04.538Z,3.80
2022-08-26T10:14:12.845Z,4.00
2022-08-26T10:17:22.505Z,4.70
2022-08-26T10:20:26.561Z,4.50
2022-08-26T10:23:29.891Z,4.17
2022-08-26T10:26:37.961Z,3.67
2022-08-26T10:29:43.210Z,4.22
2022-08-26T10:32:48.869Z,3.83
2022-08-26T10:35:52.552Z,3.55
2022-08-26T10:38:54.526Z,3.50
2022-08-26T10:41:59.319Z,3.72
2022-08-26T10:45:19.815Z,3.67
2022-08-26T10:48:35.294Z,3.63
2022-08-26T10:51:42.274Z,4.30
2022-08-26T10:54:53.512Z,3.93
2022-08-26T10:57:58.204Z,3.28
2022-08-26T11:01:23.911Z,3.60
2022-08-26T11:04:26.015Z,3.80
2022-08-26T11:07:39.374Z,4.13
2022-08-26T11:10:50.561Z,3.70
2022-08-26T11:13:59.864Z,3.85
2022-08-26T11:17:02.366Z,4.10
2022-08-26T11:20:09.184Z,4.03
2022-08-26T11:23:26.737Z,3.80
2022-08-26T11:26:55.427Z,3.27
2022-08-26T11:30:13.166Z,3.00
2022-08-26T11:33:35.500Z,3.65
2022-08-26T11:36:37.779Z,4.18
2022-08-26T11:39:56.987Z,3.33
2022-08-26T11:43:02.495Z,3.10
2022-08-26T11:46:09.409Z,3.50
2022-08-26T11:49:13.000Z,3.28
2022-08-26T11:52:20.851Z,3.28
2022-08-26T11:55:24.211Z,3.55
2022-08-26T11:58:27.440Z,3.13
2022-08-26T12:01:32.375Z,2.88
2022-08-26T12:04:37.856Z,3.38
2022-08-26T12:07:42.673Z,3.35
2022-08-26T12:10:44.856Z,3.47
2022-08-26T12:13:56.108Z,3.13
2022-08-26T12:17:08.302Z,3.08
2022-08-26T12:20:20.982Z,3.28
2022-08-26T12:23:35.149Z,2.83
2022-08-26T12:26:39.413Z,3.17
2022-08-26T12:29:41.673Z,3.37
2022-08-26T12:32:57.570Z,2.60
2022-08-26T12:36:02.044Z,3.08
2022-08-26T12:39:08.686Z,3.47
2022-08-26T12:42:13.504Z,3.22
2022-08-26T12:45:25.750Z,3.67
2022-08-26T12:48:31.989Z,3.03
2022-08-26T12:51:35.326Z,3.38
2022-08-26T12:54:56.980Z,3.28
2022-08-26T12:58:18.057Z,3.28
2022-08-26T13:01:22.393Z,3.87
2022-08-26T13:04:31.935Z,3.38
2022-08-26T13:07:33.942Z,3.63
2022-08-26T13:10:37.700Z,3.10
2022-08-26T13:13:40.337Z,3.10
2022-08-26T13:16:43.033Z,2.60
2022-08-26T13:19:45.082Z,3.20
2022-08-26T13:22:48.312Z,3.13
2022-08-26T13:26:01.828Z,3.15
2022-08-26T13:29:09.584Z,3.55
2022-08-26T13:32:12.335Z,3.40
2022-08-26T13:35:15.063Z,3.72
2022-08-26T13:38:18.579Z,3.45
2022-08-26T13:41:35.388Z,3.35
2022-08-26T13:44:39.043Z,3.45
2022-08-26T13:47:41.009Z,3.30
2022-08-26T13:50:43.077Z,3.65
2022-08-26T13:53:45.097Z,3.17
2022-08-26T13:56:47.189Z,3.13
2022-08-26T13:59:49.207Z,3.33
2022-08-26T14:02:51.285Z,3.17
2022-08-26T14:05:53.605Z,3.30
2022-08-26T14:08:55.711Z,3.65
2022-08-26T14:11:59.887Z,3.38
2022-08-26T14:15:03.094Z,3.22
2022-08-26T14:18:06.829Z,3.57
2022-08-26T14:21:12.653Z,2.65
2022-08-26T14:24:14.697Z,3.40
2022-08-26T14:27:16.680Z,3.38
2022-08-26T14:30:19.365Z,3.00
2022-08-26T14:33:24.756Z,3.77
2022-08-26T14:36:30.915Z,2.75
2022-08-26T14:39:32.991Z,4.03
2022-08-26T14:42:35.240Z,3.92
2022-08-26T14:48:47.369Z,3.67
2022-08-26T14:51:49.403Z,3.33
2022-08-26T14:54:54.826Z,3.35
2022-08-26T14:57:57.463Z,4.40
2022-08-26T15:00:59.868Z,3.20
2022-08-26T15:04:06.777Z,3.27
2022-08-26T15:07:12.721Z,3.20
2022-08-26T15:10:15.562Z,3.30
2022-08-26T15:13:17.581Z,2.70
2022-08-26T15:16:19.746Z,3.08
2022-08-26T15:19:22.653Z,3.00
2022-08-26T15:22:24.719Z,3.33
2022-08-26T15:25:31.511Z,4.50
2022-08-26T15:28:33.509Z,2.92
2022-08-26T15:31:36.616Z,3.50
2022-08-26T15:34:38.987Z,3.20
2022-08-26T15:37:41.083Z,3.35
2022-08-26T15:40:43.432Z,2.90
2022-08-26T15:43:45.491Z,3.47
2022-08-26T15:46:47.869Z,2.80
2022-08-26T15:49:49.973Z,4.03
2022-08-26T15:52:52.026Z,3.55
2022-08-26T15:55:55.173Z,3.45
2022-08-26T15:58:58.662Z,3.85
2022-08-26T16:02:01.606Z,3.53
2022-08-26T16:05:03.837Z,3.40
2022-08-26T16:08:07.143Z,4.03
2022-08-26T16:11:09.256Z,3.50
2022-08-26T16:14:11.437Z,3.67
2022-08-26T16:17:13.545Z,3.63
2022-08-26T16:20:16.955Z,4.00
2022-08-26T16:23:19.326Z,3.20
2022-08-26T16:26:22.757Z,3.58
2022-08-26T16:29:24.739Z,3.53
2022-08-26T16:32:30.742Z,3.53
2022-08-26T16:35:33.415Z,3.63
2022-08-26T16:38:36.288Z,4.70
2022-08-26T16:41:38.402Z,4.25
2022-08-26T16:44:46.093Z,3.92
2022-08-26T16:47:48.555Z,4.63
2022-08-26T16:50:50.931Z,4.40
2022-08-26T16:53:53.953Z,4.65
2022-08-26T16:56:56.685Z,3.58
2022-08-26T16:59:58.847Z,3.88
2022-08-26T17:03:01.539Z,4.00
2022-08-26T17:06:03.656Z,4.10
2022-08-26T17:09:05.911Z,3.83
2022-08-26T17:12:08.027Z,5.00
2022-08-26T17:15:10.422Z,4.60
2022-08-26T17:18:12.522Z,4.13
2022-08-26T17:21:14.676Z,4.70
2022-08-26T17:24:16.802Z,5.97
2022-08-26T17:27:18.814Z,4.80
2022-08-26T17:30:22.030Z,5.45
2022-08-26T17:33:25.335Z,5.90
2022-08-26T17:36:28.455Z,5.50
2022-08-26T17:39:30.602Z,5.55
2022-08-26T17:42:32.640Z,5.60
2022-08-26T17:45:36.891Z,5.18
2022-08-26T17:48:39.817Z,5.15
2022-08-26T17:51:41.847Z,4.77
2022-08-26T17:54:44.112Z,4.70
2022-08-26T17:57:53.382Z,4.40
2022-08-26T18:00:56.035Z,4.43
2022-08-26T18:04:00.517Z,4.65
2022-08-26T18:07:03.318Z,3.90
2022-08-26T18:10:08.214Z,4.40
2022-08-26T18:13:14.917Z,4.72
2022-08-26T18:16:17.892Z,3.95
2022-08-26T18:19:20.182Z,4.13
2022-08-26T18:22:23.246Z,3.67
2022-08-26T18:25:25.399Z,4.00
2022-08-26T18:28:27.835Z,3.33
2022-08-26T18:31:30.192Z,3.80
2022-08-26T18:34:32.364Z,3.78
2022-08-26T18:37:34.390Z,4.27
2022-08-26T18:40:40.516Z,4.32
2022-08-26T18:43:43.212Z,4.53
2022-08-26T18:46:46.087Z,4.00
2022-08-26T18:49:48.733Z,3.92
2022-08-26T18:52:50.740Z,3.77
2022-08-26T18:55:52.848Z,3.88
2022-08-26T18:58:54.917Z,3.22
2022-08-26T19:01:57.080Z,3.63
2022-08-26T19:04:59.237Z,3.70
2022-08-26T19:08:01.244Z,3.60
2022-08-26T19:11:03.244Z,3.72
2022-08-26T19:14:06.988Z,3.88
2022-08-26T19:17:09.833Z,3.58
2022-08-26T19:20:11.875Z,3.67
2022-08-26T19:23:30.981Z,3.40
2022-08-26T19:26:34.367Z,4.00
2022-08-26T19:29:36.537Z,3.92
2022-08-26T19:32:38.543Z,4.30
2022-08-26T19:35:41.167Z,3.67
2022-08-26T19:38:43.888Z,3.60
2022-08-26T19:41:45.896Z,3.45
2022-08-26T19:45:06.341Z,3.67
2022-08-26T19:48:09.768Z,3.88
2022-08-26T19:51:15.729Z,3.80
2022-08-26T19:54:17.736Z,3.70
2022-08-26T19:57:19.825Z,3.47
2022-08-26T20:00:26.028Z,3.30
2022-08-26T20:03:28.569Z,3.10
2022-08-26T20:06:30.634Z,4.10
2022-08-26T20:09:34.159Z,3.27
2022-08-26T20:12:36.175Z,3.60
2022-08-26T20:15:38.270Z,3.40
2022-08-26T20:19:19.581Z,3.67
2022-08-26T20:22:21.790Z,3.42
2022-08-26T20:25:24.072Z,3.57
2022-08-26T20:28:26.185Z,3.10
2022-08-26T20:31:28.553Z,3.67
2022-08-26T20:34:30.663Z,3.63
2022-08-26T20:37:32.979Z,3.30
2022-08-26T20:40:35.646Z,3.67
2022-08-26T20:43:37.738Z,4.05
2022-08-26T20:46:40.000Z,3.75
2022-08-26T20:49:42.008Z,3.45
2022-08-26T20:52:44.403Z,4.30
2022-08-26T20:55:46.424Z,3.83
2022-08-26T20:58:48.411Z,3.47
2022-08-26T21:01:50.533Z,4.10
2022-08-26T21:04:52.594Z,4.30
2022-08-26T21:07:54.715Z,3.88
2022-08-26T21:10:56.728Z,4.13
2022-08-26T21:14:06.701Z,3.80
2022-08-26T21:17:08.931Z,3.85
2022-08-26T21:20:10.965Z,4.57
2022-08-26T21:23:13.710Z,5.35
2022-08-26T21:26:16.701Z,4.80
2022-08-26T21:29:18.763Z,4.72
2022-08-26T21:32:20.754Z,4.20
2022-08-26T21:35:23.017Z,4.53
2022-08-26T21:38:25.129Z,4.45
2022-08-26T21:41:31.102Z,5.30
2022-08-26T21:44:33.191Z,4.93
2022-08-26T21:47:35.234Z,5.47
2022-08-26T21:50:38.187Z,5.03
2022-08-26T21:53:40.543Z,5.43
2022-08-26T21:56:46.153Z,5.80
2022-08-26T21:59:48.245Z,5.78
2022-08-26T22:02:50.312Z,5.47
2022-08-26T22:05:52.361Z,5.20
2022-08-26T22:08:54.581Z,6.28
2022-08-26T22:11:57.150Z,5.00
2022-08-26T22:14:59.410Z,4.65
2022-08-26T22:18:03.680Z,4.25
2022-08-26T22:21:08.169Z,4.90
2022-08-26T22:24:12.206Z,3.90
2022-08-26T22:27:14.279Z,4.10
2022-08-26T22:30:16.340Z,4.78
2022-08-26T22:33:18.533Z,4.90
2022-08-26T22:36:22.019Z,4.40
2022-08-26T22:39:24.860Z,3.80
2022-08-26T22:42:27.177Z,4.37
2022-08-26T22:45:31.280Z,4.10
2022-08-26T22:48:33.416Z,3.90
2022-08-26T22:51:35.508Z,4.13
2022-08-26T22:54:37.550Z,4.47
2022-08-26T22:57:39.518Z,3.67
2022-08-26T23:00:42.590Z,5.00
2022-08-26T23:03:46.083Z,3.95
2022-08-26T23:06:48.197Z,4.07
2022-08-26T23:09:50.195Z,4.70
2022-08-26T23:12:52.913Z,4.10
2022-08-26T23:16:02.060Z,3.75
2022-08-26T23:19:04.807Z,3.70
2022-08-26T23:22:06.896Z,4.10
2022-08-26T23:25:10.030Z,4.40
2022-08-26T23:28:12.806Z,3.60
2022-08-26T23:31:14.894Z,4.30
2022-08-26T23:34:35.653Z,4.47
2022-08-26T23:37:39.671Z,4.32
2022-08-26T23:40:43.234Z,4.07
2022-08-26T23:43:45.271Z,3.73
2022-08-26T23:46:47.274Z,4.32
2022-08-26T23:49:49.284Z,4.13
2022-08-26T23:53:06.249Z,4.63
2022-08-26T23:56:12.247Z,4.40
2022-08-26T23:59:14.277Z,4.13
